createdAt,value
2018-11-02T00:00:26.616Z,7.40
2018-11-02T00:02:29.694Z,7.38
2018-11-02T00:04:34.840Z,7.38
2018-11-02T00:06:37.872Z,7.49
2018-11-02T00:08:41.100Z,7.52
2018-11-02T00:10:44.181Z,7.45
2018-11-02T00:12:47.171Z,7.48
2018-11-02T00:14:50.195Z,7.50
2018-11-02T00:16:53.422Z,7.43
2018-11-02T00:18:56.687Z,7.54
2018-11-02T00:20:59.873Z,7.50
2018-11-02T00:23:04.868Z,7.49
2018-11-02T00:25:07.890Z,7.53
2018-11-02T00:27:11.104Z,7.56
2018-11-02T00:29:14.125Z,7.45
2018-11-02T00:31:17.192Z,7.43
2018-11-02T00:33:20.259Z,7.50
2018-11-02T00:35:23.282Z,7.50
2018-11-02T00:37:26.298Z,7.49
2018-11-02T00:39:29.355Z,7.41
2018-11-02T00:41:34.085Z,7.44
2018-11-02T00:43:37.162Z,7.51
2018-11-02T00:45:40.169Z,7.45
2018-11-02T00:47:43.344Z,7.51
2018-11-02T00:49:46.318Z,7.55
2018-11-02T00:51:49.346Z,7.57
2018-11-02T00:53:52.360Z,7.50
2018-11-02T00:55:55.394Z,7.46
2018-11-02T00:57:58.376Z,7.48
2018-11-02T01:00:01.443Z,7.42
2018-11-02T01:02:05.142Z,7.48
2018-11-02T01:04:08.198Z,7.55
2018-11-02T01:06:11.204Z,7.50
2018-11-02T01:08:14.239Z,7.66
2018-11-02T01:10:17.282Z,7.67
2018-11-02T01:12:20.523Z,7.49
2018-11-02T01:14:23.522Z,7.45
2018-11-02T01:16:26.589Z,7.49
2018-11-02T01:18:29.699Z,7.43
2018-11-02T01:20:34.119Z,7.37
2018-11-02T01:22:37.146Z,7.38
2018-11-02T01:24:40.158Z,7.38
2018-11-02T01:26:43.187Z,7.37
2018-11-02T01:28:46.196Z,7.44
2018-11-02T01:30:49.146Z,7.44
2018-11-02T01:32:52.176Z,7.35
2018-11-02T01:34:55.202Z,7.28
2018-11-02T01:36:58.310Z,7.40
2018-11-02T01:39:01.361Z,7.47
2018-11-02T01:41:04.691Z,7.43
2018-11-02T01:43:07.681Z,7.33
2018-11-02T01:45:10.690Z,7.39
2018-11-02T01:47:13.837Z,7.43
2018-11-02T01:49:16.871Z,7.30
2018-11-02T01:51:19.859Z,7.27
2018-11-02T01:53:22.951Z,7.25
2018-11-02T01:55:25.963Z,7.22
2018-11-02T01:57:29.005Z,7.19
2018-11-02T01:59:34.036Z,7.23
2018-11-02T02:01:37.063Z,7.45
2018-11-02T02:03:40.115Z,7.44
2018-11-02T02:05:43.125Z,7.28
2018-11-02T02:07:46.190Z,7.08
2018-11-02T02:09:49.236Z,7.04
2018-11-02T02:11:52.442Z,7.07
2018-11-02T02:13:55.589Z,7.06
2018-11-02T02:15:58.963Z,7.00
2018-11-02T02:18:03.599Z,7.09
2018-11-02T02:20:07.228Z,7.05
2018-11-02T02:22:10.591Z,6.95
2018-11-02T02:24:13.609Z,6.96
2018-11-02T02:26:16.652Z,7.11
2018-11-02T02:28:19.738Z,7.11
2018-11-02T02:30:22.828Z,7.07
2018-11-02T02:32:25.880Z,7.11
2018-11-02T02:34:28.905Z,7.10
2018-11-02T02:36:33.484Z,7.12
2018-11-02T02:38:36.856Z,7.07
2018-11-02T02:40:39.863Z,7.02
2018-11-02T02:42:42.870Z,6.95
2018-11-02T02:44:45.899Z,7.12
2018-11-02T02:46:48.899Z,7.08
2018-11-02T02:48:51.958Z,7.11
2018-11-02T02:50:55.031Z,7.17
2018-11-02T02:52:58.052Z,7.25
2018-11-02T02:55:01.112Z,7.25
2018-11-02T02:57:05.900Z,7.39
2018-11-02T02:59:08.944Z,7.54
2018-11-02T03:01:11.969Z,7.63
2018-11-02T03:03:15.124Z,7.57
2018-11-02T03:05:18.139Z,7.69
2018-11-02T03:07:21.117Z,7.60
2018-11-02T03:09:24.160Z,7.61
2018-11-02T03:11:27.192Z,7.66
2018-11-02T03:13:30.219Z,7.83
2018-11-02T03:15:35.075Z,7.84
2018-11-02T03:17:38.138Z,7.91
2018-11-02T03:19:41.192Z,7.92
2018-11-02T03:21:44.237Z,8.01
2018-11-02T03:23:47.687Z,7.98
2018-11-02T03:25:50.696Z,8.02
2018-11-02T03:27:53.696Z,8.12
2018-11-02T03:29:56.667Z,8.08
2018-11-02T03:31:59.687Z,8.13
2018-11-02T03:34:04.425Z,8.18
2018-11-02T03:36:07.568Z,8.12
2018-11-02T03:38:10.601Z,8.06
2018-11-02T03:40:13.601Z,8.07
2018-11-02T03:42:18.392Z,8.03
2018-11-02T03:44:21.408Z,8.06
2018-11-02T03:46:24.453Z,8.14
2018-11-02T03:48:27.518Z,8.06
2018-11-02T03:50:30.540Z,8.13
2018-11-02T03:52:35.008Z,8.10
2018-11-02T03:54:38.072Z,8.15
2018-11-02T03:56:41.098Z,8.11
2018-11-02T03:58:44.114Z,8.18
2018-11-02T04:00:47.116Z,8.12
2018-11-02T04:02:50.100Z,8.09
2018-11-02T04:04:53.114Z,8.19
2018-11-02T04:06:56.446Z,8.18
2018-11-02T04:08:59.464Z,8.38
2018-11-02T04:11:03.785Z,8.20
2018-11-02T04:13:06.774Z,8.24
2018-11-02T04:15:09.804Z,8.15
2018-11-02T04:17:13.049Z,8.16
2018-11-02T04:19:16.076Z,7.99
2018-11-02T04:21:19.112Z,8.04
2018-11-02T04:23:22.284Z,8.17
2018-11-02T04:25:25.304Z,8.12
2018-11-02T04:27:28.626Z,8.13
2018-11-02T04:29:33.155Z,8.27
2018-11-02T04:31:36.389Z,8.09
2018-11-02T04:33:39.401Z,8.18
2018-11-02T04:35:42.418Z,8.17
2018-11-02T04:37:45.455Z,8.14
2018-11-02T04:39:48.464Z,8.19
2018-11-02T04:41:51.650Z,8.49
2018-11-02T04:43:54.654Z,8.35
2018-11-02T04:45:57.693Z,8.40
2018-11-02T04:48:01.140Z,8.34
2018-11-02T04:50:07.457Z,8.24
2018-11-02T04:52:10.442Z,8.21
2018-11-02T04:54:13.645Z,8.15
2018-11-02T04:56:16.624Z,8.21
2018-11-02T04:58:19.646Z,8.12
2018-11-02T05:00:22.663Z,7.97
2018-11-02T05:02:25.716Z,8.03
2018-11-02T05:04:28.740Z,8.05
2018-11-02T05:06:33.332Z,7.94
2018-11-02T05:08:36.459Z,7.86
2018-11-02T05:10:39.450Z,7.81
2018-11-02T05:12:42.452Z,7.73
2018-11-02T05:14:45.512Z,7.76
2018-11-02T05:16:48.573Z,7.80
2018-11-02T05:18:51.553Z,7.75
2018-11-02T05:20:54.600Z,7.67
2018-11-02T05:22:57.711Z,7.49
2018-11-02T05:25:00.686Z,7.59
2018-11-02T05:27:05.005Z,7.98
2018-11-02T05:29:09.069Z,7.87
2018-11-02T05:31:12.070Z,7.64
2018-11-02T05:33:15.158Z,7.68
2018-11-02T05:35:18.237Z,7.78
2018-11-02T05:37:21.258Z,7.59
2018-11-02T05:39:24.271Z,7.85
2018-11-02T05:41:27.282Z,7.63
2018-11-02T05:43:30.266Z,7.72
2018-11-02T05:45:34.825Z,7.73
2018-11-02T05:47:37.945Z,7.69
2018-11-02T05:49:40.934Z,7.65
2018-11-02T05:51:43.936Z,7.65
2018-11-02T05:53:47.004Z,7.59
2018-11-02T05:55:49.977Z,7.70
2018-11-02T05:57:52.987Z,7.74
2018-11-02T05:59:56.348Z,7.76
2018-11-02T06:01:59.356Z,7.64
2018-11-02T06:04:03.878Z,7.65
2018-11-02T06:06:07.223Z,7.57
2018-11-02T06:08:10.232Z,7.64
2018-11-02T06:10:13.239Z,7.60
2018-11-02T06:12:16.439Z,7.60
2018-11-02T06:14:19.507Z,7.50
2018-11-02T06:16:22.508Z,7.45
2018-11-02T06:18:25.862Z,7.57
2018-11-02T06:20:28.886Z,7.50
2018-11-02T06:22:33.549Z,7.48
2018-11-02T06:24:36.637Z,7.56
2018-11-02T06:26:39.675Z,7.49
2018-11-02T06:28:42.730Z,7.50
2018-11-02T06:30:45.911Z,7.49
2018-11-02T06:32:49.053Z,7.64
2018-11-02T06:34:51.882Z,7.64
2018-11-02T06:36:55.185Z,7.67
2018-11-02T06:38:58.604Z,7.72
2018-11-02T06:41:01.573Z,7.65
2018-11-02T06:43:06.135Z,7.65
2018-11-02T06:45:10.085Z,7.71
2018-11-02T06:47:13.156Z,7.66
2018-11-02T06:49:16.424Z,7.62
2018-11-02T06:51:19.451Z,7.67
2018-11-02T06:53:22.449Z,7.76
2018-11-02T06:55:25.461Z,7.80
2018-11-02T06:57:28.509Z,7.94
2018-11-02T06:59:31.745Z,8.09
2018-11-02T07:01:35.624Z,8.30
2018-11-02T07:03:38.664Z,8.43
2018-11-02T07:05:41.654Z,8.49
2018-11-02T07:07:45.138Z,8.65
2018-11-02T07:09:48.120Z,8.62
2018-11-02T07:11:51.151Z,8.72
2018-11-02T07:13:54.224Z,8.76
2018-11-02T07:15:57.379Z,8.87
2018-11-02T07:18:00.380Z,8.80
2018-11-02T07:20:05.353Z,9.00
2018-11-02T07:22:08.384Z,8.92
2018-11-02T07:24:11.433Z,8.86
2018-11-02T07:26:14.501Z,8.84
2018-11-02T07:28:17.537Z,8.91
2018-11-02T07:30:20.603Z,8.87
2018-11-02T07:32:23.628Z,8.85
2018-11-02T07:34:26.702Z,8.89
2018-11-02T07:36:29.612Z,8.88
2018-11-02T07:38:34.454Z,8.89
2018-11-02T07:40:37.465Z,9.00
2018-11-02T07:42:41.061Z,8.85
2018-11-02T07:44:44.068Z,8.97
2018-11-02T07:46:47.148Z,8.95
2018-11-02T07:48:50.227Z,8.99
2018-11-02T07:50:53.264Z,9.17
2018-11-02T07:52:56.603Z,9.22
2018-11-02T07:54:59.617Z,9.32
2018-11-02T07:57:04.539Z,9.30
2018-11-02T07:59:07.641Z,9.36
2018-11-02T08:01:10.639Z,9.45
2018-11-02T08:03:13.612Z,9.68
2018-11-02T08:05:16.671Z,9.72
2018-11-02T08:07:19.777Z,9.76
2018-11-02T08:09:22.788Z,9.83
2018-11-02T08:11:25.861Z,10.02
2018-11-02T08:13:28.836Z,10.07
2018-11-02T08:15:33.475Z,10.32
2018-11-02T08:17:37.295Z,10.44
2018-11-02T08:19:40.214Z,10.55
2018-11-02T08:21:43.213Z,10.73
2018-11-02T08:23:46.575Z,10.78
2018-11-02T08:25:49.582Z,10.77
2018-11-02T08:27:52.602Z,10.61
2018-11-02T08:29:55.587Z,10.68
2018-11-02T08:31:58.672Z,10.66
2018-11-02T08:34:03.413Z,10.70
2018-11-02T08:36:06.403Z,10.73
2018-11-02T08:38:09.421Z,10.81
2018-11-02T08:40:13.155Z,10.91
2018-11-02T08:42:16.172Z,11.03
2018-11-02T08:44:19.156Z,11.17
2018-11-02T08:46:22.213Z,11.31
2018-11-02T08:48:25.178Z,11.46
2018-11-02T08:50:28.610Z,11.62
2018-11-02T08:52:31.610Z,11.81
2018-11-02T08:54:36.308Z,11.95
2018-11-02T08:56:39.334Z,11.92
2018-11-02T08:58:42.499Z,12.12
2018-11-02T09:00:45.421Z,12.15
2018-11-02T09:02:48.484Z,12.37
2018-11-02T09:04:51.508Z,12.49
2018-11-02T09:06:54.562Z,12.39
2018-11-02T09:08:57.580Z,12.56
2018-11-02T09:11:00.593Z,12.70
2018-11-02T09:13:04.797Z,12.61
2018-11-02T09:15:07.817Z,12.70
2018-11-02T09:17:10.918Z,12.59
2018-11-02T09:19:14.012Z,12.60
2018-11-02T09:21:17.004Z,12.67
2018-11-02T09:23:20.011Z,12.81
2018-11-02T09:25:23.082Z,12.90
2018-11-02T09:27:26.146Z,12.82
2018-11-02T09:29:29.181Z,12.82
2018-11-02T09:31:34.076Z,12.91
2018-11-02T09:33:37.124Z,12.91
2018-11-02T09:35:40.130Z,12.88
2018-11-02T09:37:43.514Z,13.01
2018-11-02T09:39:46.600Z,13.14
2018-11-02T09:41:49.642Z,13.32
2018-11-02T09:43:52.706Z,13.36
2018-11-02T09:45:55.809Z,13.42
2018-11-02T09:47:58.894Z,13.40
2018-11-02T09:50:03.614Z,13.37
2018-11-02T09:52:06.878Z,13.40
2018-11-02T09:54:09.769Z,13.50
2018-11-02T09:56:12.795Z,13.49
2018-11-02T09:58:15.906Z,13.60
2018-11-02T10:00:18.985Z,13.64
2018-11-02T10:02:22.021Z,13.65
2018-11-02T10:04:25.096Z,13.69
2018-11-02T10:06:28.148Z,13.81
2018-11-02T10:08:31.288Z,13.97
2018-11-02T10:10:36.018Z,14.07
2018-11-02T10:12:39.119Z,13.92
2018-11-02T10:14:42.194Z,13.94
2018-11-02T10:16:45.695Z,13.91
2018-11-02T10:18:48.760Z,13.95
2018-11-02T10:20:51.815Z,13.90
2018-11-02T10:22:54.849Z,13.96
2018-11-02T10:24:58.200Z,13.93
2018-11-02T10:27:01.288Z,13.86
2018-11-02T10:29:05.682Z,13.82
2018-11-02T10:31:08.784Z,13.82
2018-11-02T10:33:11.815Z,13.81
2018-11-02T10:35:14.888Z,13.84
2018-11-02T10:37:17.983Z,13.92
2018-11-02T10:39:21.056Z,13.96
2018-11-02T10:41:30.598Z,13.89
2018-11-02T10:43:34.890Z,13.88
2018-11-02T10:45:41.835Z,13.88
2018-11-02T10:47:45.915Z,13.95
2018-11-02T10:49:49.028Z,13.96
2018-11-02T10:51:52.038Z,14.01
2018-11-02T10:53:55.182Z,14.07
2018-11-02T10:55:58.234Z,14.14
2018-11-02T10:58:01.298Z,13.96
2018-11-02T11:00:14.277Z,14.07
2018-11-02T11:02:23.218Z,14.12
2018-11-02T11:04:26.254Z,14.05
2018-11-02T11:06:29.640Z,14.19
2018-11-02T11:08:33.979Z,14.12
2018-11-02T11:10:37.038Z,14.14
2018-11-02T11:12:41.162Z,14.08
2018-11-02T11:14:44.070Z,14.00
2018-11-02T11:16:47.147Z,14.03
2018-11-02T11:18:50.222Z,14.01
2018-11-02T11:20:53.310Z,14.21
2018-11-02T11:22:56.359Z,14.27
2018-11-02T11:24:59.458Z,14.37
2018-11-02T11:27:03.921Z,14.55
2018-11-02T11:29:07.470Z,14.69
2018-11-02T11:31:10.556Z,14.78
2018-11-02T11:33:13.639Z,14.62
2018-11-02T11:35:17.560Z,14.81
2018-11-02T11:37:20.701Z,15.06
2018-11-02T11:39:23.841Z,14.96
2018-11-02T11:41:26.874Z,14.92
2018-11-02T11:43:30.059Z,14.81
2018-11-02T11:45:34.279Z,14.75
2018-11-02T11:47:37.828Z,14.99
2018-11-02T11:49:40.958Z,14.73
2018-11-02T11:51:44.036Z,14.91
2018-11-02T11:53:47.140Z,14.97
2018-11-02T11:55:50.185Z,15.06
2018-11-02T11:57:53.625Z,15.18
2018-11-02T11:59:56.741Z,15.20
2018-11-02T12:01:59.795Z,15.16
2018-11-02T12:04:04.844Z,15.04
2018-11-02T12:06:07.992Z,15.32
2018-11-02T12:08:11.138Z,15.36
2018-11-02T12:10:16.924Z,15.46
2018-11-02T12:12:19.998Z,15.68
2018-11-02T12:14:23.010Z,15.62
2018-11-02T12:16:26.133Z,15.73
2018-11-02T12:18:29.192Z,15.82
2018-11-02T12:20:33.885Z,15.59
2018-11-02T12:22:37.003Z,15.52
2018-11-02T12:24:40.209Z,15.59
2018-11-02T12:26:43.212Z,15.52
2018-11-02T12:28:46.288Z,15.49
2018-11-02T12:30:49.395Z,15.37
2018-11-02T12:32:52.332Z,15.38
2018-11-02T12:34:55.360Z,15.45
2018-11-02T12:36:58.398Z,15.59
2018-11-02T12:39:01.317Z,15.70
2018-11-02T12:41:05.750Z,16.01
2018-11-02T12:43:08.784Z,16.19
2018-11-02T12:45:14.182Z,16.52
2018-11-02T12:47:17.227Z,16.26
2018-11-02T12:49:20.512Z,16.07
2018-11-02T12:51:23.284Z,15.63
2018-11-02T12:53:26.284Z,15.60
2018-11-02T12:55:29.284Z,15.56
2018-11-02T12:57:34.275Z,15.36
2018-11-02T12:59:37.279Z,15.20
2018-11-02T13:01:40.312Z,15.15
2018-11-02T13:03:43.443Z,15.25
2018-11-02T13:05:46.474Z,15.37
2018-11-02T13:07:49.533Z,15.37
2018-11-02T13:09:52.621Z,15.36
2018-11-02T13:11:55.593Z,15.40
2018-11-02T13:13:58.909Z,15.44
2018-11-02T13:16:03.592Z,16.06
2018-11-02T13:18:06.533Z,16.56
2018-11-02T13:20:10.124Z,16.68
2018-11-02T13:22:13.092Z,16.61
2018-11-02T13:24:16.139Z,16.78
2018-11-02T13:26:19.327Z,16.61
2018-11-02T13:28:22.369Z,16.22
2018-11-02T13:30:25.429Z,16.20
2018-11-02T13:32:28.348Z,16.30
2018-11-02T13:34:31.333Z,16.44
2018-11-02T13:36:35.618Z,16.32
2018-11-02T13:38:38.394Z,16.11
2018-11-02T13:40:41.448Z,16.00
2018-11-02T13:42:44.575Z,16.15
2018-11-02T13:44:47.593Z,15.90
2018-11-02T13:46:50.693Z,15.90
2018-11-02T13:48:53.719Z,15.56
2018-11-02T13:50:56.720Z,15.51
2018-11-02T13:52:59.784Z,15.47
2018-11-02T13:55:04.508Z,15.70
2018-11-02T13:57:07.873Z,15.76
2018-11-02T13:59:10.933Z,16.06
2018-11-02T14:01:14.027Z,16.27
2018-11-02T14:03:17.064Z,16.15
2018-11-02T14:05:20.065Z,16.08
2018-11-02T14:07:23.122Z,15.84
2018-11-02T14:09:26.269Z,16.02
2018-11-02T14:11:29.596Z,16.03
2018-11-02T14:13:32.938Z,16.01
2018-11-02T14:15:36.003Z,16.01
2018-11-02T14:17:39.616Z,16.02
2018-11-02T14:19:42.716Z,15.67
2018-11-02T14:21:45.834Z,15.71
2018-11-02T14:23:49.236Z,15.50
2018-11-02T14:25:52.232Z,15.37
2018-11-02T14:27:55.314Z,15.24
2018-11-02T14:29:58.405Z,15.13
2018-11-02T14:32:01.527Z,15.01
2018-11-02T14:34:05.836Z,15.12
2018-11-02T14:36:08.922Z,15.18
2018-11-02T14:38:11.975Z,15.19
2018-11-02T14:40:15.054Z,15.18
2018-11-02T14:42:18.054Z,15.18
2018-11-02T14:44:21.104Z,15.02
2018-11-02T14:46:24.228Z,14.74
2018-11-02T14:48:27.295Z,14.66
2018-11-02T14:50:30.398Z,14.71
2018-11-02T14:52:35.159Z,14.63
2018-11-02T14:54:38.189Z,14.57
2018-11-02T14:56:41.254Z,14.58
2018-11-02T14:58:44.332Z,14.17
2018-11-02T15:00:47.479Z,14.30
2018-11-02T15:02:50.921Z,14.06
2018-11-02T15:04:54.103Z,14.14
2018-11-02T15:06:57.161Z,14.20
2018-11-02T15:09:00.317Z,14.20
2018-11-02T15:11:05.255Z,14.00
2018-11-02T15:13:08.278Z,13.99
2018-11-02T15:15:11.350Z,13.70
2018-11-02T15:17:14.761Z,13.75
2018-11-02T15:19:17.793Z,13.72
2018-11-02T15:21:20.837Z,13.63
2018-11-02T15:23:23.991Z,13.71
2018-11-02T15:25:27.041Z,13.69
2018-11-02T15:27:30.103Z,13.70
2018-11-02T15:29:34.905Z,13.76
2018-11-02T15:31:38.017Z,13.76
2018-11-02T15:33:41.341Z,13.48
2018-11-02T15:35:44.397Z,13.27
2018-11-02T15:37:47.762Z,13.12
2018-11-02T15:39:50.745Z,13.04
2018-11-02T15:41:53.803Z,12.86
2018-11-02T15:43:56.971Z,12.75
2018-11-02T15:46:00.043Z,12.86
2018-11-02T15:48:04.186Z,13.06
2018-11-02T15:50:08.829Z,12.86
2018-11-02T15:52:13.236Z,12.76
2018-11-02T15:54:16.256Z,12.58
2018-11-02T15:56:19.377Z,12.50
2018-11-02T15:58:22.482Z,12.25
2018-11-02T16:00:25.598Z,12.14
2018-11-02T16:02:28.680Z,12.08
2018-11-02T16:04:33.546Z,11.98
2018-11-02T16:06:36.599Z,11.97
2018-11-02T16:08:39.644Z,11.93
2018-11-02T16:10:42.887Z,11.89
2018-11-02T16:12:46.517Z,11.80
2018-11-02T16:14:49.581Z,11.80
2018-11-02T16:16:52.967Z,11.70
2018-11-02T16:18:56.173Z,11.72
2018-11-02T16:20:59.276Z,11.61
2018-11-02T16:23:04.190Z,11.44
2018-11-02T16:25:07.368Z,11.40
2018-11-02T16:27:10.473Z,11.33
2018-11-02T16:29:13.576Z,11.41
2018-11-02T16:31:16.618Z,11.28
2018-11-02T16:33:20.067Z,11.20
2018-11-02T16:35:23.116Z,11.22
2018-11-02T16:37:26.914Z,11.05
2018-11-02T16:39:30.324Z,10.95
2018-11-02T16:41:35.037Z,10.89
2018-11-02T16:43:38.128Z,10.91
2018-11-02T16:45:41.165Z,10.84
2018-11-02T16:47:44.504Z,10.90
2018-11-02T16:49:47.475Z,10.67
2018-11-02T16:51:50.551Z,10.44
2018-11-02T16:53:53.660Z,10.37
2018-11-02T16:55:56.771Z,10.14
2018-11-02T16:57:59.880Z,10.08
2018-11-02T17:00:03.888Z,10.45
2018-11-02T17:02:07.025Z,10.38
2018-11-02T17:04:10.272Z,10.49
2018-11-02T17:06:13.501Z,10.53
2018-11-02T17:08:16.420Z,10.19
2018-11-02T17:10:19.498Z,10.19
2018-11-02T17:12:22.544Z,9.99
2018-11-02T17:14:25.578Z,9.90
2018-11-02T17:16:28.699Z,9.80
2018-11-02T17:18:33.406Z,9.71
2018-11-02T17:20:36.541Z,9.67
2018-11-02T17:22:39.693Z,9.67
2018-11-02T17:24:42.795Z,9.63
2018-11-02T17:26:45.866Z,9.56
2018-11-02T17:28:48.987Z,9.55
2018-11-02T17:30:52.085Z,9.46
2018-11-02T17:32:55.136Z,9.37
2018-11-02T17:34:58.167Z,9.35
2018-11-02T17:37:01.231Z,9.24
2018-11-02T17:39:08.709Z,9.53
2018-11-02T17:41:11.852Z,9.67
2018-11-02T17:43:14.981Z,9.61
2018-11-02T17:45:18.053Z,9.51
2018-11-02T17:47:21.107Z,9.54
2018-11-02T17:49:24.242Z,9.50
2018-11-02T17:51:27.278Z,9.43
2018-11-02T17:53:30.363Z,9.51
2018-11-02T17:55:34.676Z,9.38
2018-11-02T17:57:37.692Z,9.27
2018-11-02T17:59:40.763Z,9.26
2018-11-02T18:01:44.049Z,9.35
2018-11-02T18:03:47.101Z,9.30
2018-11-02T18:05:50.169Z,9.25
2018-11-02T18:07:53.332Z,9.22
2018-11-02T18:09:56.372Z,9.22
2018-11-02T18:11:59.445Z,9.20
2018-11-02T18:14:04.333Z,9.11
2018-11-02T18:16:07.378Z,9.37
2018-11-02T18:18:10.525Z,9.29
2018-11-02T18:20:15.198Z,9.37
2018-11-02T18:22:18.387Z,9.21
2018-11-02T18:24:21.473Z,9.03
2018-11-02T18:26:24.509Z,9.03
2018-11-02T18:28:27.562Z,9.04
2018-11-02T18:30:30.661Z,9.04
2018-11-02T18:32:35.684Z,8.98
2018-11-02T18:34:38.699Z,9.07
2018-11-02T18:36:41.792Z,9.09
2018-11-02T18:38:44.888Z,8.88
2018-11-02T18:40:47.946Z,8.82
2018-11-02T18:42:50.953Z,8.79
2018-11-02T18:44:54.007Z,8.71
2018-11-02T18:46:57.022Z,8.66
2018-11-02T18:49:00.571Z,8.94
2018-11-02T18:51:05.185Z,8.94
2018-11-02T18:53:08.184Z,8.82
2018-11-02T18:55:11.208Z,8.70
2018-11-02T18:57:14.358Z,8.92
2018-11-02T18:59:17.429Z,8.89
2018-11-02T19:01:20.542Z,9.11
2018-11-02T19:03:23.590Z,8.96
2018-11-02T19:05:26.635Z,8.92
2018-11-02T19:07:29.669Z,8.89
2018-11-02T19:09:34.417Z,8.78
2018-11-02T19:11:38.875Z,8.62
2018-11-02T19:13:42.126Z,8.54
2018-11-02T19:15:45.238Z,8.57
2018-11-02T19:17:48.254Z,8.62
2018-11-02T19:19:51.427Z,8.58
2018-11-02T19:21:54.381Z,8.87
2018-11-02T19:23:57.475Z,8.95
2018-11-02T19:26:00.569Z,8.79
2018-11-02T19:28:04.987Z,8.89
2018-11-02T19:30:10.634Z,8.73
2018-11-02T19:32:13.827Z,8.60
2018-11-02T19:34:16.915Z,8.65
2018-11-02T19:36:20.359Z,8.54
2018-11-02T19:38:23.533Z,8.60
2018-11-02T19:40:26.514Z,8.59
2018-11-02T19:42:29.732Z,8.60
2018-11-02T19:44:34.205Z,8.60
2018-11-02T19:46:37.283Z,8.64
2018-11-02T19:48:40.410Z,8.76
2018-11-02T19:50:43.575Z,8.69
2018-11-02T19:52:46.532Z,8.67
2018-11-02T19:54:49.589Z,8.65
2018-11-02T19:56:52.712Z,8.60
2018-11-02T19:58:55.846Z,8.58
2018-11-02T20:00:58.905Z,8.90
2018-11-02T20:03:03.369Z,9.23
2018-11-02T20:05:08.746Z,9.16
2018-11-02T20:07:11.873Z,9.07
2018-11-02T20:09:15.023Z,8.96
2018-11-02T20:11:18.137Z,8.83
2018-11-02T20:13:21.179Z,8.88
2018-11-02T20:15:24.229Z,8.76
2018-11-02T20:17:27.267Z,8.85
2018-11-02T20:19:30.359Z,8.73
2018-11-02T20:21:35.257Z,8.64
2018-11-02T20:23:38.316Z,8.58
2018-11-02T20:25:41.487Z,8.57
2018-11-02T20:27:44.585Z,8.56
2018-11-02T20:29:47.697Z,8.54
2018-11-02T20:31:50.900Z,8.55
2018-11-02T20:33:53.912Z,8.52
2018-11-02T20:35:56.997Z,8.54
2018-11-02T20:38:00.107Z,8.47
2018-11-02T20:40:05.761Z,8.46
2018-11-02T20:42:08.988Z,8.44
2018-11-02T20:44:12.086Z,8.45
2018-11-02T20:46:15.167Z,8.46
2018-11-02T20:48:18.237Z,8.65
2018-11-02T20:50:21.380Z,8.50
2018-11-02T20:52:24.365Z,8.43
2018-11-02T20:54:27.478Z,8.62
2018-11-02T20:56:30.720Z,8.61
2018-11-02T20:58:35.607Z,8.55
2018-11-02T21:00:38.709Z,8.48
2018-11-02T21:02:42.386Z,8.43
2018-11-02T21:04:45.330Z,8.36
2018-11-02T21:06:48.472Z,8.35
2018-11-02T21:08:51.545Z,8.26
2018-11-02T21:10:54.517Z,8.72
2018-11-02T21:12:57.676Z,8.80
2018-11-02T21:15:00.838Z,8.59
2018-11-02T21:17:05.732Z,8.38
2018-11-02T21:19:08.782Z,8.30
2018-11-02T21:21:12.003Z,8.12
2018-11-02T21:23:14.988Z,8.16
2018-11-02T21:25:18.172Z,8.12
2018-11-02T21:27:21.287Z,8.27
2018-11-02T21:29:24.339Z,8.28
2018-11-02T21:31:27.677Z,8.46
2018-11-02T21:33:30.839Z,8.57
2018-11-02T21:35:35.616Z,8.40
2018-11-02T21:37:38.962Z,8.36
2018-11-02T21:39:42.009Z,8.27
2018-11-02T21:41:45.249Z,8.16
2018-11-02T21:43:48.457Z,7.97
2018-11-02T21:45:51.649Z,7.93
2018-11-02T21:47:54.793Z,7.85
2018-11-02T21:49:57.820Z,7.79
2018-11-02T21:52:00.875Z,7.76
2018-11-02T21:54:05.468Z,7.77
2018-11-02T21:56:08.584Z,8.04
2018-11-02T21:58:11.776Z,8.17
2018-11-02T22:00:15.708Z,8.07
2018-11-02T22:02:18.785Z,8.00
2018-11-02T22:04:21.862Z,7.69
2018-11-02T22:06:24.919Z,8.04
2018-11-02T22:08:27.941Z,7.92
2018-11-02T22:10:31.392Z,7.93
2018-11-02T22:12:35.779Z,8.20
2018-11-02T22:14:38.890Z,8.19
2018-11-02T22:16:42.022Z,8.14
2018-11-02T22:18:45.119Z,8.02
2018-11-02T22:20:48.147Z,7.84
2018-11-02T22:22:51.232Z,7.84
2018-11-02T22:24:54.372Z,7.83
2018-11-02T22:26:58.816Z,7.81
2018-11-02T22:29:03.314Z,7.77
2018-11-02T22:31:06.353Z,8.01
2018-11-02T22:33:09.491Z,8.30
2018-11-02T22:35:13.197Z,8.33
2018-11-02T22:37:16.299Z,8.23
2018-11-02T22:39:19.381Z,8.14
2018-11-02T22:41:22.624Z,8.09
2018-11-02T22:43:25.659Z,8.04
2018-11-02T22:45:28.800Z,8.11
2018-11-02T22:47:33.343Z,8.21
2018-11-02T22:49:36.568Z,8.02
2018-11-02T22:51:39.869Z,7.94
2018-11-02T22:53:42.872Z,7.88
2018-11-02T22:55:46.142Z,7.82
2018-11-02T22:57:49.559Z,7.82
2018-11-02T22:59:52.821Z,7.83
2018-11-02T23:01:55.984Z,7.81
2018-11-02T23:04:00.849Z,7.75
2018-11-02T23:06:05.839Z,7.75
2018-11-02T23:08:12.464Z,7.75
2018-11-02T23:10:16.270Z,7.84
2018-11-02T23:12:19.407Z,8.02
2018-11-02T23:14:22.509Z,8.08
2018-11-02T23:16:25.629Z,8.06
2018-11-02T23:18:28.752Z,7.91
2018-11-02T23:20:33.541Z,7.83
2018-11-02T23:22:36.898Z,8.06
2018-11-02T23:24:40.057Z,8.28
2018-11-02T23:26:43.126Z,8.35
2018-11-02T23:28:46.256Z,8.09
2018-11-02T23:30:49.276Z,7.89
2018-11-02T23:32:52.435Z,8.08
2018-11-02T23:34:55.717Z,8.17
2018-11-02T23:36:58.805Z,8.07
2018-11-02T23:39:03.632Z,7.94
2018-11-02T23:41:07.068Z,7.83
2018-11-02T23:43:10.232Z,7.86
2018-11-02T23:45:13.348Z,7.78
2018-11-02T23:47:16.712Z,7.78
2018-11-02T23:49:19.706Z,7.98
2018-11-02T23:51:22.785Z,8.13
2018-11-02T23:53:25.855Z,7.93
2018-11-02T23:55:28.917Z,7.91
2018-11-02T23:57:34.429Z,8.12
2018-11-02T23:59:37.767Z,8.00
